sensor_id;sensor_type;location;lat;lon;timestamp;temperature;humidity
37356;DHT22;48747;50.250;18.848;2022-07-12T00:01:22;13.30;99.90
37356;DHT22;48747;50.250;18.848;2022-07-12T00:03:25;13.30;99.90
37356;DHT22;48747;50.250;18.848;2022-07-12T00:05:28;13.30;99.90
37356;DHT22;48747;50.250;18.848;2022-07-12T00:07:31;13.30;99.90
37356;DHT22;48747;50.250;18.848;2022-07-12T00:09:34;13.30;99.90
37356;DHT22;48747;50.250;18.848;2022-07-12T00:11:37;13.30;99.90
37356;DHT22;48747;50.250;18.848;2022-07-12T00:13:40;13.20;99.90
37356;DHT22;48747;50.250;18.848;2022-07-12T00:15:44;13.20;99.90
37356;DHT22;48747;50.250;18.848;2022-07-12T00:17:47;13.20;99.90
37356;DHT22;48747;50.250;18.848;2022-07-12T00:19:50;13.20;99.90
37356;DHT22;48747;50.250;18.848;2022-07-12T00:21:53;13.20;99.90
37356;DHT22;48747;50.250;18.848;2022-07-12T00:23:56;13.20;99.90
37356;DHT22;48747;50.250;18.848;2022-07-12T00:25:59;13.20;99.90
37356;DHT22;48747;50.250;18.848;2022-07-12T00:28:04;13.20;99.90
37356;DHT22;48747;50.250;18.848;2022-07-12T00:30:08;13.30;99.90
37356;DHT22;48747;50.250;18.848;2022-07-12T00:32:11;13.40;99.90
37356;DHT22;48747;50.250;18.848;2022-07-12T00:34:14;13.40;99.90
37356;DHT22;48747;50.250;18.848;2022-07-12T00:36:17;13.30;99.90
37356;DHT22;48747;50.250;18.848;2022-07-12T00:38:22;13.40;99.90
37356;DHT22;48747;50.250;18.848;2022-07-12T00:40:25;13.40;99.90
37356;DHT22;48747;50.250;18.848;2022-07-12T00:42:28;13.40;99.90
37356;DHT22;48747;50.250;18.848;2022-07-12T00:44:31;13.40;99.90
37356;DHT22;48747;50.250;18.848;2022-07-12T00:46:35;13.40;99.90
37356;DHT22;48747;50.250;18.848;2022-07-12T00:48:38;13.30;99.90
37356;DHT22;48747;50.250;18.848;2022-07-12T00:50:41;13.40;99.90
37356;DHT22;48747;50.250;18.848;2022-07-12T00:52:46;13.40;99.90
37356;DHT22;48747;50.250;18.848;2022-07-12T00:54:49;13.50;99.90
37356;DHT22;48747;50.250;18.848;2022-07-12T00:56:52;13.40;99.90
37356;DHT22;48747;50.250;18.848;2022-07-12T00:58:56;13.50;99.90
37356;DHT22;48747;50.250;18.848;2022-07-12T01:00:59;13.50;99.90
37356;DHT22;48747;50.250;18.848;2022-07-12T01:03:03;13.60;99.90
37356;DHT22;48747;50.250;18.848;2022-07-12T01:05:07;13.70;99.90
37356;DHT22;48747;50.250;18.848;2022-07-12T01:07:11;13.70;99.90
37356;DHT22;48747;50.250;18.848;2022-07-12T01:09:14;13.80;99.90
37356;DHT22;48747;50.250;18.848;2022-07-12T01:11:17;13.70;99.90
37356;DHT22;48747;50.250;18.848;2022-07-12T01:13:20;13.70;99.90
37356;DHT22;48747;50.250;18.848;2022-07-12T01:15:23;13.60;99.90
37356;DHT22;48747;50.250;18.848;2022-07-12T01:17:27;13.60;99.90
37356;DHT22;48747;50.250;18.848;2022-07-12T01:19:32;13.60;99.90
37356;DHT22;48747;50.250;18.848;2022-07-12T01:21:37;13.60;99.90
37356;DHT22;48747;50.250;18.848;2022-07-12T01:23:40;13.60;99.90
37356;DHT22;48747;50.250;18.848;2022-07-12T01:25:43;13.60;99.90
37356;DHT22;48747;50.250;18.848;2022-07-12T01:27:46;13.60;99.90
37356;DHT22;48747;50.250;18.848;2022-07-12T01:29:50;13.60;99.90
37356;DHT22;48747;50.250;18.848;2022-07-12T01:31:53;13.50;99.90
37356;DHT22;48747;50.250;18.848;2022-07-12T01:33:56;13.50;99.90
37356;DHT22;48747;50.250;18.848;2022-07-12T01:35:59;13.50;99.90
37356;DHT22;48747;50.250;18.848;2022-07-12T01:38:02;13.50;99.90
37356;DHT22;48747;50.250;18.848;2022-07-12T01:40:07;13.40;99.90
37356;DHT22;48747;50.250;18.848;2022-07-12T01:42:11;13.40;99.90
37356;DHT22;48747;50.250;18.848;2022-07-12T01:44:15;13.40;99.90
37356;DHT22;48747;50.250;18.848;2022-07-12T01:46:18;13.30;99.90
37356;DHT22;48747;50.250;18.848;2022-07-12T01:48:21;13.30;99.90
37356;DHT22;48747;50.250;18.848;2022-07-12T01:50:24;13.20;99.90
37356;DHT22;48747;50.250;18.848;2022-07-12T01:52:28;13.20;99.90
37356;DHT22;48747;50.250;18.848;2022-07-12T01:54:31;13.10;99.90
37356;DHT22;48747;50.250;18.848;2022-07-12T01:56:36;13.10;99.90
37356;DHT22;48747;50.250;18.848;2022-07-12T01:58:39;13.10;99.90
37356;DHT22;48747;50.250;18.848;2022-07-12T02:00:42;13.10;99.90
37356;DHT22;48747;50.250;18.848;2022-07-12T02:02:47;13.10;99.90
37356;DHT22;48747;50.250;18.848;2022-07-12T02:04:50;13.10;99.90
37356;DHT22;48747;50.250;18.848;2022-07-12T02:06:53;13.10;99.90
37356;DHT22;48747;50.250;18.848;2022-07-12T02:08:57;13.10;99.90
37356;DHT22;48747;50.250;18.848;2022-07-12T02:11:00;13.10;99.90
37356;DHT22;48747;50.250;18.848;2022-07-12T02:13:04;13.10;99.90
37356;DHT22;48747;50.250;18.848;2022-07-12T02:15:07;13.00;99.90
37356;DHT22;48747;50.250;18.848;2022-07-12T02:17:10;13.00;99.90
37356;DHT22;48747;50.250;18.848;2022-07-12T02:19:14;13.10;99.90
37356;DHT22;48747;50.250;18.848;2022-07-12T02:21:17;13.00;99.90
37356;DHT22;48747;50.250;18.848;2022-07-12T02:23:20;13.10;99.90
37356;DHT22;48747;50.250;18.848;2022-07-12T02:25:23;13.10;99.90
37356;DHT22;48747;50.250;18.848;2022-07-12T02:27:26;13.20;99.90
37356;DHT22;48747;50.250;18.848;2022-07-12T02:29:29;13.20;99.90
37356;DHT22;48747;50.250;18.848;2022-07-12T02:31:32;13.20;99.90
37356;DHT22;48747;50.250;18.848;2022-07-12T02:33:36;13.20;99.90
37356;DHT22;48747;50.250;18.848;2022-07-12T02:35:39;13.20;99.90
37356;DHT22;48747;50.250;18.848;2022-07-12T02:37:42;13.20;99.90
37356;DHT22;48747;50.250;18.848;2022-07-12T02:39:45;13.20;99.90
37356;DHT22;48747;50.250;18.848;2022-07-12T02:41:48;13.20;99.90
37356;DHT22;48747;50.250;18.848;2022-07-12T02:43:51;13.10;99.90
37356;DHT22;48747;50.250;18.848;2022-07-12T02:45:55;13.00;99.90
37356;DHT22;48747;50.250;18.848;2022-07-12T02:47:59;13.00;99.90
37356;DHT22;48747;50.250;18.848;2022-07-12T02:50:03;13.00;99.90
37356;DHT22;48747;50.250;18.848;2022-07-12T02:52:06;12.90;99.90
37356;DHT22;48747;50.250;18.848;2022-07-12T02:54:09;13.00;99.90
37356;DHT22;48747;50.250;18.848;2022-07-12T02:56:12;12.90;99.90
37356;DHT22;48747;50.250;18.848;2022-07-12T02:58:15;12.90;99.90
37356;DHT22;48747;50.250;18.848;2022-07-12T03:00:18;12.80;99.90
37356;DHT22;48747;50.250;18.848;2022-07-12T03:02:21;12.80;99.90
37356;DHT22;48747;50.250;18.848;2022-07-12T03:04:24;12.70;99.90
37356;DHT22;48747;50.250;18.848;2022-07-12T03:06:27;12.70;99.90
37356;DHT22;48747;50.250;18.848;2022-07-12T03:08:30;12.70;99.90
37356;DHT22;48747;50.250;18.848;2022-07-12T03:10:34;12.60;99.90
37356;DHT22;48747;50.250;18.848;2022-07-12T03:12:38;12.60;99.90
37356;DHT22;48747;50.250;18.848;2022-07-12T03:14:41;12.60;99.90
37356;DHT22;48747;50.250;18.848;2022-07-12T03:16:44;12.60;99.90
37356;DHT22;48747;50.250;18.848;2022-07-12T03:18:47;12.70;99.90
37356;DHT22;48747;50.250;18.848;2022-07-12T03:20:50;12.80;99.90
37356;DHT22;48747;50.250;18.848;2022-07-12T03:22:53;12.80;99.90
37356;DHT22;48747;50.250;18.848;2022-07-12T03:24:56;12.90;99.90
37356;DHT22;48747;50.250;18.848;2022-07-12T03:26:59;13.00;99.90
37356;DHT22;48747;50.250;18.848;2022-07-12T03:29:02;13.10;99.90
37356;DHT22;48747;50.250;18.848;2022-07-12T03:31:06;13.10;99.90
37356;DHT22;48747;50.250;18.848;2022-07-12T03:33:09;13.10;99.90
37356;DHT22;48747;50.250;18.848;2022-07-12T03:35:12;13.10;99.90
37356;DHT22;48747;50.250;18.848;2022-07-12T03:37:17;13.10;99.90
37356;DHT22;48747;50.250;18.848;2022-07-12T03:39:25;13.10;99.90
37356;DHT22;48747;50.250;18.848;2022-07-12T03:41:27;13.10;99.90
37356;DHT22;48747;50.250;18.848;2022-07-12T03:43:30;13.10;99.90
37356;DHT22;48747;50.250;18.848;2022-07-12T03:45:33;13.20;99.90
37356;DHT22;48747;50.250;18.848;2022-07-12T03:47:36;13.10;99.90
37356;DHT22;48747;50.250;18.848;2022-07-12T03:49:42;13.10;99.90
37356;DHT22;48747;50.250;18.848;2022-07-12T03:51:45;13.10;99.90
37356;DHT22;48747;50.250;18.848;2022-07-12T03:53:48;13.10;99.90
37356;DHT22;48747;50.250;18.848;2022-07-12T03:55:53;13.10;99.90
37356;DHT22;48747;50.250;18.848;2022-07-12T03:57:56;13.10;99.90
37356;DHT22;48747;50.250;18.848;2022-07-12T03:59:59;13.10;99.90
37356;DHT22;48747;50.250;18.848;2022-07-12T04:02:04;13.10;99.90
37356;DHT22;48747;50.250;18.848;2022-07-12T04:04:07;13.20;99.90
37356;DHT22;48747;50.250;18.848;2022-07-12T04:06:10;13.20;99.90
37356;DHT22;48747;50.250;18.848;2022-07-12T04:08:13;13.40;99.90
37356;DHT22;48747;50.250;18.848;2022-07-12T04:10:17;13.40;99.90
37356;DHT22;48747;50.250;18.848;2022-07-12T04:12:20;13.40;99.90
37356;DHT22;48747;50.250;18.848;2022-07-12T04:14:23;13.40;99.90
37356;DHT22;48747;50.250;18.848;2022-07-12T04:16:26;13.40;99.90
37356;DHT22;48747;50.250;18.848;2022-07-12T04:18:32;13.40;99.90
37356;DHT22;48747;50.250;18.848;2022-07-12T04:20:35;13.30;99.90
37356;DHT22;48747;50.250;18.848;2022-07-12T04:22:40;13.20;99.90
37356;DHT22;48747;50.250;18.848;2022-07-12T04:24:43;13.20;99.90
37356;DHT22;48747;50.250;18.848;2022-07-12T04:26:46;13.20;99.90
37356;DHT22;48747;50.250;18.848;2022-07-12T04:28:49;13.40;99.90
37356;DHT22;48747;50.250;18.848;2022-07-12T04:30:52;13.40;99.90
37356;DHT22;48747;50.250;18.848;2022-07-12T04:32:55;13.40;99.90
37356;DHT22;48747;50.250;18.848;2022-07-12T04:34:58;13.40;99.90
37356;DHT22;48747;50.250;18.848;2022-07-12T04:37:04;13.40;99.90
37356;DHT22;48747;50.250;18.848;2022-07-12T04:39:06;13.40;99.90
37356;DHT22;48747;50.250;18.848;2022-07-12T04:41:09;13.30;99.90
37356;DHT22;48747;50.250;18.848;2022-07-12T04:43:12;13.30;99.90
37356;DHT22;48747;50.250;18.848;2022-07-12T04:45:15;13.30;99.90
37356;DHT22;48747;50.250;18.848;2022-07-12T04:47:18;13.30;99.90
37356;DHT22;48747;50.250;18.848;2022-07-12T04:49:22;13.30;99.90
37356;DHT22;48747;50.250;18.848;2022-07-12T04:51:25;13.40;99.90
37356;DHT22;48747;50.250;18.848;2022-07-12T04:53:29;13.50;99.90
37356;DHT22;48747;50.250;18.848;2022-07-12T04:55:32;13.60;99.90
37356;DHT22;48747;50.250;18.848;2022-07-12T04:57:35;13.60;99.90
37356;DHT22;48747;50.250;18.848;2022-07-12T04:59:40;13.70;99.90
37356;DHT22;48747;50.250;18.848;2022-07-12T05:01:43;13.90;99.90
37356;DHT22;48747;50.250;18.848;2022-07-12T05:03:47;14.00;99.90
37356;DHT22;48747;50.250;18.848;2022-07-12T05:05:51;14.10;99.90
37356;DHT22;48747;50.250;18.848;2022-07-12T05:07:55;14.30;99.90
37356;DHT22;48747;50.250;18.848;2022-07-12T05:09:58;14.50;99.90
37356;DHT22;48747;50.250;18.848;2022-07-12T05:12:01;14.70;99.90
37356;DHT22;48747;50.250;18.848;2022-07-12T05:14:07;14.90;99.90
37356;DHT22;48747;50.250;18.848;2022-07-12T05:16:09;15.00;99.90
37356;DHT22;48747;50.250;18.848;2022-07-12T05:18:12;15.00;99.90
37356;DHT22;48747;50.250;18.848;2022-07-12T05:20:15;14.90;99.90
37356;DHT22;48747;50.250;18.848;2022-07-12T05:22:18;14.90;99.90
37356;DHT22;48747;50.250;18.848;2022-07-12T05:24:21;15.00;99.90
37356;DHT22;48747;50.250;18.848;2022-07-12T05:26:24;15.20;99.90
37356;DHT22;48747;50.250;18.848;2022-07-12T05:28:27;15.30;99.90
37356;DHT22;48747;50.250;18.848;2022-07-12T05:30:30;15.20;99.90
37356;DHT22;48747;50.250;18.848;2022-07-12T05:32:33;15.40;99.90
37356;DHT22;48747;50.250;18.848;2022-07-12T05:34:37;15.50;99.90
37356;DHT22;48747;50.250;18.848;2022-07-12T05:36:40;15.60;99.90
37356;DHT22;48747;50.250;18.848;2022-07-12T05:38:44;15.60;99.90
37356;DHT22;48747;50.250;18.848;2022-07-12T05:40:47;15.60;99.90
37356;DHT22;48747;50.250;18.848;2022-07-12T05:42:50;15.70;99.90
37356;DHT22;48747;50.250;18.848;2022-07-12T05:44:53;15.60;99.90
37356;DHT22;48747;50.250;18.848;2022-07-12T05:46:56;15.70;99.90
37356;DHT22;48747;50.250;18.848;2022-07-12T05:49:00;15.70;99.90
37356;DHT22;48747;50.250;18.848;2022-07-12T05:51:03;15.60;99.90
37356;DHT22;48747;50.250;18.848;2022-07-12T05:53:23;15.50;99.90
37356;DHT22;48747;50.250;18.848;2022-07-12T05:55:27;15.50;99.90
37356;DHT22;48747;50.250;18.848;2022-07-12T05:57:30;15.50;99.90
37356;DHT22;48747;50.250;18.848;2022-07-12T05:59:35;15.60;99.90
37356;DHT22;48747;50.250;18.848;2022-07-12T06:01:38;15.60;99.90
37356;DHT22;48747;50.250;18.848;2022-07-12T06:03:41;15.70;99.90
37356;DHT22;48747;50.250;18.848;2022-07-12T06:05:44;15.80;99.90
37356;DHT22;48747;50.250;18.848;2022-07-12T06:07:47;15.80;99.90
37356;DHT22;48747;50.250;18.848;2022-07-12T06:09:50;15.80;99.90
37356;DHT22;48747;50.250;18.848;2022-07-12T06:11:53;15.90;99.90
37356;DHT22;48747;50.250;18.848;2022-07-12T06:13:56;16.00;99.90
37356;DHT22;48747;50.250;18.848;2022-07-12T06:15:59;15.90;99.90
37356;DHT22;48747;50.250;18.848;2022-07-12T06:18:03;15.90;99.90
37356;DHT22;48747;50.250;18.848;2022-07-12T06:20:06;15.90;99.90
37356;DHT22;48747;50.250;18.848;2022-07-12T06:22:09;16.00;99.90
37356;DHT22;48747;50.250;18.848;2022-07-12T06:24:12;16.10;99.90
37356;DHT22;48747;50.250;18.848;2022-07-12T06:26:15;16.20;99.90
37356;DHT22;48747;50.250;18.848;2022-07-12T06:28:18;16.30;99.90
37356;DHT22;48747;50.250;18.848;2022-07-12T06:30:22;16.40;99.90
37356;DHT22;48747;50.250;18.848;2022-07-12T06:32:25;16.50;99.90
37356;DHT22;48747;50.250;18.848;2022-07-12T06:34:28;16.50;99.90
37356;DHT22;48747;50.250;18.848;2022-07-12T06:36:31;16.50;99.90
37356;DHT22;48747;50.250;18.848;2022-07-12T06:38:34;16.50;99.90
37356;DHT22;48747;50.250;18.848;2022-07-12T06:40:37;16.60;99.90
37356;DHT22;48747;50.250;18.848;2022-07-12T06:42:40;16.60;99.90
37356;DHT22;48747;50.250;18.848;2022-07-12T06:44:43;16.60;99.90
37356;DHT22;48747;50.250;18.848;2022-07-12T06:46:46;16.70;99.90
37356;DHT22;48747;50.250;18.848;2022-07-12T06:48:56;16.80;99.90
37356;DHT22;48747;50.250;18.848;2022-07-12T06:50:59;16.80;99.90
37356;DHT22;48747;50.250;18.848;2022-07-12T06:53:02;16.80;99.90
37356;DHT22;48747;50.250;18.848;2022-07-12T06:55:06;16.90;99.90
37356;DHT22;48747;50.250;18.848;2022-07-12T06:57:09;17.00;99.90
37356;DHT22;48747;50.250;18.848;2022-07-12T06:59:12;17.00;99.90
37356;DHT22;48747;50.250;18.848;2022-07-12T07:01:16;17.20;99.90
37356;DHT22;48747;50.250;18.848;2022-07-12T07:03:19;17.30;99.90
37356;DHT22;48747;50.250;18.848;2022-07-12T07:05:22;17.40;99.90
37356;DHT22;48747;50.250;18.848;2022-07-12T07:07:25;17.40;99.90
37356;DHT22;48747;50.250;18.848;2022-07-12T07:09:28;17.50;99.90
37356;DHT22;48747;50.250;18.848;2022-07-12T07:11:31;17.70;99.90
37356;DHT22;48747;50.250;18.848;2022-07-12T07:13:34;18.00;99.90
37356;DHT22;48747;50.250;18.848;2022-07-12T07:15:39;18.10;99.90
37356;DHT22;48747;50.250;18.848;2022-07-12T07:17:42;18.10;99.90
37356;DHT22;48747;50.250;18.848;2022-07-12T07:19:46;18.20;99.90
37356;DHT22;48747;50.250;18.848;2022-07-12T07:21:49;18.30;99.90
37356;DHT22;48747;50.250;18.848;2022-07-12T07:23:52;18.40;98.40
37356;DHT22;48747;50.250;18.848;2022-07-12T07:25:55;18.30;99.60
37356;DHT22;48747;50.250;18.848;2022-07-12T07:27:58;18.40;99.00
37356;DHT22;48747;50.250;18.848;2022-07-12T07:30:01;18.40;97.20
37356;DHT22;48747;50.250;18.848;2022-07-12T07:32:22;18.40;94.80
37356;DHT22;48747;50.250;18.848;2022-07-12T07:34:25;18.40;97.80
37356;DHT22;48747;50.250;18.848;2022-07-12T07:36:29;18.30;97.80
37356;DHT22;48747;50.250;18.848;2022-07-12T07:38:32;18.30;99.40
37356;DHT22;48747;50.250;18.848;2022-07-12T07:40:35;18.50;96.30
37356;DHT22;48747;50.250;18.848;2022-07-12T07:42:39;18.60;96.20
37356;DHT22;48747;50.250;18.848;2022-07-12T07:44:57;18.90;93.20
37356;DHT22;48747;50.250;18.848;2022-07-12T07:47:00;19.10;93.80
37356;DHT22;48747;50.250;18.848;2022-07-12T07:49:03;19.20;94.30
37356;DHT22;48747;50.250;18.848;2022-07-12T07:51:06;19.20;92.90
37356;DHT22;48747;50.250;18.848;2022-07-12T07:53:09;19.30;94.60
37356;DHT22;48747;50.250;18.848;2022-07-12T07:55:12;19.40;93.70
37356;DHT22;48747;50.250;18.848;2022-07-12T07:57:15;19.60;93.80
37356;DHT22;48747;50.250;18.848;2022-07-12T07:59:19;19.70;90.10
37356;DHT22;48747;50.250;18.848;2022-07-12T08:01:22;19.70;89.60
37356;DHT22;48747;50.250;18.848;2022-07-12T08:03:42;19.60;90.20
37356;DHT22;48747;50.250;18.848;2022-07-12T08:05:46;19.80;91.70
37356;DHT22;48747;50.250;18.848;2022-07-12T08:07:50;19.80;90.50
37356;DHT22;48747;50.250;18.848;2022-07-12T08:09:54;19.80;91.10
37356;DHT22;48747;50.250;18.848;2022-07-12T08:12:05;19.80;90.20
37356;DHT22;48747;50.250;18.848;2022-07-12T08:14:05;19.70;88.90
37356;DHT22;48747;50.250;18.848;2022-07-12T08:16:14;19.80;89.10
37356;DHT22;48747;50.250;18.848;2022-07-12T08:18:13;20.00;90.10
37356;DHT22;48747;50.250;18.848;2022-07-12T08:20:17;20.00;83.70
37356;DHT22;48747;50.250;18.848;2022-07-12T08:22:20;20.00;83.00
37356;DHT22;48747;50.250;18.848;2022-07-12T08:24:23;19.80;85.20
37356;DHT22;48747;50.250;18.848;2022-07-12T08:26:26;19.50;85.50
37356;DHT22;48747;50.250;18.848;2022-07-12T08:28:29;19.40;86.10
37356;DHT22;48747;50.250;18.848;2022-07-12T08:30:34;19.20;87.90
37356;DHT22;48747;50.250;18.848;2022-07-12T08:32:42;19.10;88.20
37356;DHT22;48747;50.250;18.848;2022-07-12T08:34:42;19.10;90.10
37356;DHT22;48747;50.250;18.848;2022-07-12T08:36:45;19.00;89.00
37356;DHT22;48747;50.250;18.848;2022-07-12T08:38:48;18.90;88.10
37356;DHT22;48747;50.250;18.848;2022-07-12T08:40:51;18.70;93.60
37356;DHT22;48747;50.250;18.848;2022-07-12T08:43:01;18.50;99.80
37356;DHT22;48747;50.250;18.848;2022-07-12T08:45:08;18.20;99.90
37356;DHT22;48747;50.250;18.848;2022-07-12T08:47:12;17.90;99.90
37356;DHT22;48747;50.250;18.848;2022-07-12T08:49:15;17.80;99.90
37356;DHT22;48747;50.250;18.848;2022-07-12T08:51:20;17.80;99.90
37356;DHT22;48747;50.250;18.848;2022-07-12T08:53:24;17.90;99.90
37356;DHT22;48747;50.250;18.848;2022-07-12T08:55:29;18.00;99.90
37356;DHT22;48747;50.250;18.848;2022-07-12T08:57:32;18.30;99.90
37356;DHT22;48747;50.250;18.848;2022-07-12T08:59:35;18.50;99.90
37356;DHT22;48747;50.250;18.848;2022-07-12T09:01:39;18.70;99.90
37356;DHT22;48747;50.250;18.848;2022-07-12T09:03:47;18.80;99.90
37356;DHT22;48747;50.250;18.848;2022-07-12T09:08:05;19.10;99.90
37356;DHT22;48747;50.250;18.848;2022-07-12T09:10:09;19.30;99.90
37356;DHT22;48747;50.250;18.848;2022-07-12T09:12:23;19.40;99.90
37356;DHT22;48747;50.250;18.848;2022-07-12T09:14:26;19.60;99.90
37356;DHT22;48747;50.250;18.848;2022-07-12T09:16:31;19.80;99.90
37356;DHT22;48747;50.250;18.848;2022-07-12T09:18:36;19.80;96.00
37356;DHT22;48747;50.250;18.848;2022-07-12T09:20:39;19.80;95.80
37356;DHT22;48747;50.250;18.848;2022-07-12T09:22:50;19.60;93.40
37356;DHT22;48747;50.250;18.848;2022-07-12T09:24:49;19.80;94.70
37356;DHT22;48747;50.250;18.848;2022-07-12T09:27:03;19.90;94.70
37356;DHT22;48747;50.250;18.848;2022-07-12T09:29:08;20.10;93.40
37356;DHT22;48747;50.250;18.848;2022-07-12T09:31:13;20.20;92.20
37356;DHT22;48747;50.250;18.848;2022-07-12T09:33:20;20.10;86.80
37356;DHT22;48747;50.250;18.848;2022-07-12T09:35:41;20.10;88.70
37356;DHT22;48747;50.250;18.848;2022-07-12T09:38:09;20.10;86.30
37356;DHT22;48747;50.250;18.848;2022-07-12T09:40:12;19.90;85.90
37356;DHT22;48747;50.250;18.848;2022-07-12T09:42:15;19.90;90.30
37356;DHT22;48747;50.250;18.848;2022-07-12T09:44:20;19.80;90.70
37356;DHT22;48747;50.250;18.848;2022-07-12T09:46:24;19.70;91.10
37356;DHT22;48747;50.250;18.848;2022-07-12T09:48:31;19.60;90.90
37356;DHT22;48747;50.250;18.848;2022-07-12T09:50:37;19.50;89.80
37356;DHT22;48747;50.250;18.848;2022-07-12T09:52:41;19.20;81.70
37356;DHT22;48747;50.250;18.848;2022-07-12T09:54:46;19.10;82.30
37356;DHT22;48747;50.250;18.848;2022-07-12T09:56:52;19.10;82.80
37356;DHT22;48747;50.250;18.848;2022-07-12T09:58:58;19.10;83.60
37356;DHT22;48747;50.250;18.848;2022-07-12T10:01:03;19.00;83.90
37356;DHT22;48747;50.250;18.848;2022-07-12T10:03:08;18.80;83.60
37356;DHT22;48747;50.250;18.848;2022-07-12T10:05:12;18.70;85.00
37356;DHT22;48747;50.250;18.848;2022-07-12T10:07:15;18.50;91.30
37356;DHT22;48747;50.250;18.848;2022-07-12T10:09:29;16.20;99.90
37356;DHT22;48747;50.250;18.848;2022-07-12T10:11:41;14.10;99.90
37356;DHT22;48747;50.250;18.848;2022-07-12T10:13:44;13.20;99.90
37356;DHT22;48747;50.250;18.848;2022-07-12T10:15:57;12.90;99.90
37356;DHT22;48747;50.250;18.848;2022-07-12T10:18:09;13.00;99.90
37356;DHT22;48747;50.250;18.848;2022-07-12T10:22:22;13.30;99.90
37356;DHT22;48747;50.250;18.848;2022-07-12T10:26:42;13.90;99.90
37356;DHT22;48747;50.250;18.848;2022-07-12T10:28:55;14.10;99.90
37356;DHT22;48747;50.250;18.848;2022-07-12T10:30:58;14.50;99.90
37356;DHT22;48747;50.250;18.848;2022-07-12T10:33:03;14.80;99.90
37356;DHT22;48747;50.250;18.848;2022-07-12T10:35:18;15.20;99.90
37356;DHT22;48747;50.250;18.848;2022-07-12T10:37:21;15.60;99.90
37356;DHT22;48747;50.250;18.848;2022-07-12T10:39:30;16.00;99.90
37356;DHT22;48747;50.250;18.848;2022-07-12T10:41:32;16.00;99.90
37356;DHT22;48747;50.250;18.848;2022-07-12T10:43:35;16.20;99.90
37356;DHT22;48747;50.250;18.848;2022-07-12T10:45:58;16.30;99.90
37356;DHT22;48747;50.250;18.848;2022-07-12T10:48:28;16.50;99.90
37356;DHT22;48747;50.250;18.848;2022-07-12T10:50:11;16.70;99.90
37356;DHT22;48747;50.250;18.848;2022-07-12T10:52:25;17.10;99.90
37356;DHT22;48747;50.250;18.848;2022-07-12T10:54:28;17.50;99.90
37356;DHT22;48747;50.250;18.848;2022-07-12T10:56:31;17.80;99.90
37356;DHT22;48747;50.250;18.848;2022-07-12T10:58:37;18.20;99.90
37356;DHT22;48747;50.250;18.848;2022-07-12T11:00:40;18.00;99.90
37356;DHT22;48747;50.250;18.848;2022-07-12T11:02:43;17.60;99.90
37356;DHT22;48747;50.250;18.848;2022-07-12T11:04:47;17.20;99.90
37356;DHT22;48747;50.250;18.848;2022-07-12T11:06:50;16.70;99.90
37356;DHT22;48747;50.250;18.848;2022-07-12T11:09:01;16.70;99.90
37356;DHT22;48747;50.250;18.848;2022-07-12T11:11:05;16.30;99.90
37356;DHT22;48747;50.250;18.848;2022-07-12T11:13:22;16.20;99.90
37356;DHT22;48747;50.250;18.848;2022-07-12T11:15:29;15.90;99.90
37356;DHT22;48747;50.250;18.848;2022-07-12T11:17:32;16.10;99.90
37356;DHT22;48747;50.250;18.848;2022-07-12T11:19:35;16.10;99.90
37356;DHT22;48747;50.250;18.848;2022-07-12T11:21:47;16.10;99.90
37356;DHT22;48747;50.250;18.848;2022-07-12T11:23:48;16.10;99.90
37356;DHT22;48747;50.250;18.848;2022-07-12T11:25:53;16.20;99.90
37356;DHT22;48747;50.250;18.848;2022-07-12T11:27:56;16.40;99.90
37356;DHT22;48747;50.250;18.848;2022-07-12T11:30:03;16.40;99.90
37356;DHT22;48747;50.250;18.848;2022-07-12T11:32:06;16.60;99.90
37356;DHT22;48747;50.250;18.848;2022-07-12T11:34:26;16.80;99.90
37356;DHT22;48747;50.250;18.848;2022-07-12T11:36:29;16.90;99.90
37356;DHT22;48747;50.250;18.848;2022-07-12T11:38:34;17.20;99.90
37356;DHT22;48747;50.250;18.848;2022-07-12T11:40:38;17.20;99.90
37356;DHT22;48747;50.250;18.848;2022-07-12T11:42:52;17.70;99.90
37356;DHT22;48747;50.250;18.848;2022-07-12T11:44:56;18.00;99.90
37356;DHT22;48747;50.250;18.848;2022-07-12T11:46:59;18.30;99.90
37356;DHT22;48747;50.250;18.848;2022-07-12T11:49:02;18.40;99.90
37356;DHT22;48747;50.250;18.848;2022-07-12T11:51:07;18.70;99.90
37356;DHT22;48747;50.250;18.848;2022-07-12T11:53:21;18.80;99.90
37356;DHT22;48747;50.250;18.848;2022-07-12T11:55:29;18.70;99.90
37356;DHT22;48747;50.250;18.848;2022-07-12T11:57:32;18.60;99.90
37356;DHT22;48747;50.250;18.848;2022-07-12T11:59:37;18.40;99.90
37356;DHT22;48747;50.250;18.848;2022-07-12T12:01:42;18.50;99.90
37356;DHT22;48747;50.250;18.848;2022-07-12T12:03:46;18.80;99.90
37356;DHT22;48747;50.250;18.848;2022-07-12T12:05:51;19.10;99.90
37356;DHT22;48747;50.250;18.848;2022-07-12T12:07:54;19.20;99.90
37356;DHT22;48747;50.250;18.848;2022-07-12T12:12:13;19.90;93.60
37356;DHT22;48747;50.250;18.848;2022-07-12T12:14:10;20.60;91.20
37356;DHT22;48747;50.250;18.848;2022-07-12T12:16:14;20.90;90.80
37356;DHT22;48747;50.250;18.848;2022-07-12T12:18:28;21.10;90.10
37356;DHT22;48747;50.250;18.848;2022-07-12T12:20:34;21.20;87.00
37356;DHT22;48747;50.250;18.848;2022-07-12T12:22:38;21.30;86.50
37356;DHT22;48747;50.250;18.848;2022-07-12T12:24:56;21.60;84.80
37356;DHT22;48747;50.250;18.848;2022-07-12T12:26:47;21.70;83.10
37356;DHT22;48747;50.250;18.848;2022-07-12T12:28:52;21.90;81.70
37356;DHT22;48747;50.250;18.848;2022-07-12T12:30:56;22.00;80.00
37356;DHT22;48747;50.250;18.848;2022-07-12T12:33:04;22.10;81.80
37356;DHT22;48747;50.250;18.848;2022-07-12T12:35:11;22.10;82.30
37356;DHT22;48747;50.250;18.848;2022-07-12T12:37:20;22.00;81.20
37356;DHT22;48747;50.250;18.848;2022-07-12T12:39:29;21.70;78.60
37356;DHT22;48747;50.250;18.848;2022-07-12T12:41:41;21.60;81.50
37356;DHT22;48747;50.250;18.848;2022-07-12T12:43:44;21.80;82.50
37356;DHT22;48747;50.250;18.848;2022-07-12T12:45:52;21.90;81.40
37356;DHT22;48747;50.250;18.848;2022-07-12T12:47:59;22.20;80.80
37356;DHT22;48747;50.250;18.848;2022-07-12T12:50:01;22.40;79.50
37356;DHT22;48747;50.250;18.848;2022-07-12T12:52:05;22.30;78.80
37356;DHT22;48747;50.250;18.848;2022-07-12T12:54:08;22.10;77.20
37356;DHT22;48747;50.250;18.848;2022-07-12T12:56:13;22.00;78.50
37356;DHT22;48747;50.250;18.848;2022-07-12T12:58:17;21.90;77.80
37356;DHT22;48747;50.250;18.848;2022-07-12T13:00:20;22.00;78.30
37356;DHT22;48747;50.250;18.848;2022-07-12T13:02:24;22.00;77.40